Time;durP1;ratioP1;P1;durP2;ratioP2;P2;SDS_P1;SDS_P2;PMS_P1;PMS_P2;Temp;Humidity;BMP_temperature;BMP_pressure;BME280_temperature;BME280_humidity;BME280_pressure;Samples;Min_cycle;Max_cycle;Signal;HPM_P1;HPM_P2
2022/12/19 00:00:08;;;;;;;66.85;58.53;;;14.70;45.20;;;;;;5036102;28;20199;-63
2022/12/19 00:02:39;;;;;;;64.03;56.97;;;14.70;45.20;;;;;;5036905;28;20178;-63
2022/12/19 00:05:07;;;;;;;68.35;60.80;;;14.70;45.10;;;;;;5035658;28;20558;-65
2022/12/19 00:07:34;;;;;;;66.93;58.13;;;14.60;45.30;;;;;;5035538;28;20216;-65
2022/12/19 00:10:01;;;;;;;67.22;57.05;;;14.70;45.30;;;;;;5035521;28;20230;-65
2022/12/19 00:12:28;;;;;;;66.60;56.28;;;14.60;45.10;;;;;;5034985;28;20197;-65
2022/12/19 00:14:56;;;;;;;67.22;57.17;;;14.60;45.10;;;;;;5035019;28;20211;-64
2022/12/19 00:17:25;;;;;;;62.47;55.80;;;14.60;45.10;;;;;;5036321;28;20630;-64
2022/12/19 00:19:52;;;;;;;62.88;56.13;;;14.60;45.00;;;;;;5034826;28;20199;-64
2022/12/19 00:22:19;;;;;;;61.97;54.75;;;14.60;44.90;;;;;;5034643;28;20207;-64
2022/12/19 00:24:46;;;;;;;60.38;53.53;;;14.50;44.80;;;;;;5034562;28;20203;-64
2022/12/19 00:27:13;;;;;;;61.72;54.20;;;14.50;45.00;;;;;;5034577;28;20559;-63
2022/12/19 00:29:40;;;;;;;60.65;53.38;;;14.50;44.90;;;;;;5035153;28;20200;-65
2022/12/19 00:32:08;;;;;;;59.53;52.97;;;14.50;45.10;;;;;;5035781;28;20192;-64
2022/12/19 00:34:35;;;;;;;59.22;52.72;;;14.50;45.20;;;;;;5034596;28;20206;-64
2022/12/19 00:37:02;;;;;;;55.85;49.83;;;14.50;45.30;;;;;;5034406;28;20212;-64
2022/12/19 00:39:29;;;;;;;58.58;52.20;;;14.50;45.30;;;;;;5034582;28;20224;-64
2022/12/19 00:41:56;;;;;;;59.80;51.45;;;14.40;45.30;;;;;;5034324;28;20212;-64
2022/12/19 00:44:24;;;;;;;55.40;49.17;;;14.40;45.30;;;;;;5034236;28;20211;-64
2022/12/19 00:46:53;;;;;;;55.63;49.75;;;14.40;45.20;;;;;;5034321;28;20246;-64
2022/12/19 00:49:21;;;;;;;55.55;49.60;;;14.30;45.10;;;;;;5034652;28;20255;-65
2022/12/19 00:51:48;;;;;;;55.53;49.50;;;14.30;45.10;;;;;;5034467;28;20647;-65
2022/12/19 00:54:15;;;;;;;55.33;49.40;;;14.30;45.30;;;;;;5034277;28;20227;-65
2022/12/19 00:56:42;;;;;;;55.60;48.22;;;14.30;45.20;;;;;;5034361;28;20227;-65
2022/12/19 00:59:10;;;;;;;54.40;48.50;;;14.30;45.30;;;;;;5034240;28;20243;-65
2022/12/19 01:01:39;;;;;;;54.25;48.58;;;14.30;45.30;;;;;;5033896;28;20254;-65
2022/12/19 01:04:06;;;;;;;51.72;46.20;;;14.30;45.30;;;;;;5033999;28;20609;-65
2022/12/19 01:06:35;;;;;;;54.05;48.25;;;14.20;45.00;;;;;;5034433;28;20227;-64
2022/12/19 01:09:02;;;;;;;51.25;45.70;;;14.20;45.10;;;;;;5034035;28;20224;-64
2022/12/19 01:14:10;;;;;;;49.90;44.53;;;14.20;45.10;;;;;;5032925;28;20200;-65
2022/12/19 01:16:38;;;;;;;50.72;45.22;;;14.20;45.10;;;;;;5033864;28;20266;-65
2022/12/19 01:19:06;;;;;;;48.88;43.67;;;14.20;45.10;;;;;;5035100;28;20214;-65
2022/12/19 01:21:34;;;;;;;49.65;44.35;;;14.20;45.30;;;;;;5034889;28;20192;-65
2022/12/19 01:24:01;;;;;;;48.67;43.47;;;14.20;45.20;;;;;;5033733;28;20218;-65
2022/12/19 01:26:29;;;;;;;49.22;44.03;;;14.20;45.30;;;;;;5033771;28;20192;-64
2022/12/19 01:28:56;;;;;;;48.72;43.47;;;14.10;45.20;;;;;;5033707;28;20686;-64
2022/12/19 01:31:23;;;;;;;48.92;43.17;;;14.10;45.10;;;;;;5033619;28;20616;-65
2022/12/19 01:33:51;;;;;;;47.08;42.03;;;14.10;45.00;;;;;;5034102;28;20571;-65
2022/12/19 01:36:18;;;;;;;47.30;42.30;;;14.10;45.10;;;;;;5033605;28;20687;-66
2022/12/19 01:38:46;;;;;;;48.67;42.88;;;14.10;44.90;;;;;;5034010;28;20691;-65
2022/12/19 01:41:13;;;;;;;48.17;42.97;;;14.10;44.80;;;;;;5033537;28;20215;-65
2022/12/19 01:43:57;;;;;;;44.33;39.10;;;14.10;44.60;;;;;;5034557;28;20283;-65
2022/12/19 01:46:26;;;;;;;46.08;41.28;;;14.10;44.90;;;;;;5034151;28;20185;-65
2022/12/19 01:48:54;;;;;;;46.42;41.40;;;14.00;45.00;;;;;;5034133;28;20681;-65
2022/12/19 01:51:22;;;;;;;47.17;41.80;;;14.10;45.20;;;;;;5033776;28;20200;-65
2022/12/19 01:53:52;;;;;;;44.53;40.00;;;14.10;45.10;;;;;;5034894;28;20188;-65
2022/12/19 01:56:23;;;;;;;45.90;39.50;;;14.10;45.00;;;;;;5035203;28;20208;-65
2022/12/19 01:58:50;;;;;;;45.15;40.35;;;14.10;45.10;;;;;;5018947;28;20273;-65
2022/12/19 02:01:17;;;;;;;44.25;39.45;;;14.10;45.00;;;;;;5034910;28;20192;-65
2022/12/19 02:03:44;;;;;;;45.53;40.83;;;14.00;44.80;;;;;;5033223;28;20206;-65
2022/12/19 02:06:14;;;;;;;42.90;38.40;;;14.00;44.90;;;;;;5033216;28;20220;-65
2022/12/19 02:08:41;;;;;;;44.53;39.78;;;14.00;45.10;;;;;;5033467;28;20216;-65
2022/12/19 02:11:10;;;;;;;43.42;38.67;;;14.00;44.90;;;;;;5033258;28;20227;-65
2022/12/19 02:13:37;;;;;;;42.80;38.13;;;14.00;45.00;;;;;;5033856;28;20193;-64
2022/12/19 02:16:08;;;;;;;43.08;38.60;;;14.00;44.80;;;;;;5034218;28;20227;-64
2022/12/19 02:18:39;;;;;;;43.30;37.80;;;14.00;45.00;;;;;;5033223;28;20300;-65
2022/12/19 02:21:42;;;;;;;40.85;36.63;;;14.00;45.10;;;;;;5033522;28;20192;-65
2022/12/19 02:24:29;;;;;;;39.53;35.35;;;14.00;45.10;;;;;;5030402;28;20540;-65
2022/12/19 02:27:10;;;;;;;40.63;35.85;;;13.90;44.70;;;;;;5032768;28;20275;-65
2022/12/19 02:29:49;;;;;;;41.95;37.38;;;13.90;45.30;;;;;;5033661;28;20531;-65
2022/12/19 02:32:18;;;;;;;40.65;36.25;;;13.90;45.00;;;;;;5034732;28;20176;-64
2022/12/19 02:34:50;;;;;;;39.30;35.03;;;13.90;45.00;;;;;;5017023;28;20634;-65
2022/12/19 02:37:19;;;;;;;40.85;35.90;;;13.90;44.90;;;;;;5033584;28;20204;-65
2022/12/19 02:39:49;;;;;;;40.20;35.80;;;13.90;44.80;;;;;;5032795;28;20200;-65
2022/12/19 02:42:19;;;;;;;39.63;35.33;;;13.90;44.80;;;;;;5032413;28;20204;-64
2022/12/19 02:44:48;;;;;;;38.30;34.10;;;13.90;45.00;;;;;;5033103;28;20677;-64
2022/12/19 02:47:18;;;;;;;39.22;35.10;;;13.90;44.80;;;;;;5032803;28;20199;-64
2022/12/19 02:49:45;;;;;;;38.50;34.40;;;13.90;44.80;;;;;;5033693;28;20230;-64
2022/12/19 02:52:33;;;;;;;39.42;34.95;;;13.90;44.90;;;;;;5032815;28;20262;-64
2022/12/19 02:55:04;;;;;;;36.92;33.08;;;13.80;44.70;;;;;;5032342;28;20192;-64
2022/12/19 02:57:36;;;;;;;37.92;33.92;;;13.80;44.90;;;;;;5032808;28;20237;-64
2022/12/19 03:00:06;;;;;;;36.80;32.80;;;13.80;44.70;;;;;;5033253;28;20250;-65
2022/12/19 03:02:38;;;;;;;36.22;32.30;;;13.80;44.70;;;;;;5032728;28;20203;-65
2022/12/19 03:05:08;;;;;;;36.67;32.72;;;13.80;44.60;;;;;;5032295;28;20666;-65
2022/12/19 03:07:37;;;;;;;36.03;32.10;;;13.80;44.80;;;;;;5032214;28;20639;-65
2022/12/19 03:10:09;;;;;;;37.45;33.20;;;13.80;44.80;;;;;;5033070;28;20199;-64
2022/12/19 03:12:38;;;;;;;35.53;31.73;;;13.80;44.80;;;;;;5033480;28;20177;-64
2022/12/19 03:15:18;;;;;;;36.38;32.45;;;13.80;44.80;;;;;;5032610;28;20620;-64
2022/12/19 03:17:47;;;;;;;36.08;31.48;;;13.80;44.60;;;;;;5032929;28;20231;-64
2022/12/19 03:20:19;;;;;;;33.92;30.33;;;13.70;44.60;;;;;;5032195;28;20200;-64
2022/12/19 03:22:45;;;;;;;34.22;30.58;;;13.70;44.50;;;;;;5033755;28;20605;-64
2022/12/19 03:25:13;;;;;;;35.60;31.00;;;13.80;44.60;;;;;;5036696;28;20273;-64
2022/12/19 03:27:39;;;;;;;35.17;31.38;;;13.80;44.80;;;;;;5035871;28;20270;-64
2022/12/19 03:30:08;;;;;;;33.58;29.95;;;13.70;44.80;;;;;;5035784;28;20200;-64
2022/12/19 03:32:35;;;;;;;33.10;29.55;;;13.70;44.80;;;;;;5035702;28;20647;-64
2022/12/19 03:35:05;;;;;;;33.80;30.05;;;13.70;45.00;;;;;;5035717;28;20206;-65
2022/12/19 03:37:33;;;;;;;32.45;29.05;;;13.80;44.80;;;;;;5035382;28;20314;-65
2022/12/19 03:40:03;;;;;;;32.10;28.73;;;13.80;44.90;;;;;;5037178;28;20211;-64
2022/12/19 03:45:16;;;;;;;32.63;29.15;;;13.80;45.30;;;;;;5035805;28;20219;-64
2022/12/19 03:47:45;;;;;;;31.90;28.50;;;13.90;45.00;;;;;;5035864;28;20624;-64
2022/12/19 03:50:13;;;;;;;31.77;28.40;;;13.90;45.10;;;;;;5036022;28;20204;-64
2022/12/19 03:52:45;;;;;;;31.42;28.10;;;13.90;44.90;;;;;;5036394;28;20203;-64
2022/12/19 03:55:13;;;;;;;32.47;28.98;;;13.90;44.80;;;;;;5019820;28;20340;-64
2022/12/19 03:57:41;;;;;;;32.78;29.30;;;14.00;45.00;;;;;;5036104;28;20683;-64
2022/12/19 04:00:10;;;;;;;31.40;28.00;;;14.00;45.00;;;;;;5036013;28;20212;-64
2022/12/19 04:02:40;;;;;;;30.60;27.48;;;14.00;44.60;;;;;;5037934;28;20219;-64
2022/12/19 04:05:08;;;;;;;29.98;26.88;;;14.00;44.90;;;;;;5037383;28;20286;-64
2022/12/19 04:07:37;;;;;;;30.42;26.90;;;14.10;45.00;;;;;;5040519;28;20563;-64
2022/12/19 04:10:06;;;;;;;32.65;27.70;;;14.00;44.40;;;;;;5038286;28;20188;-64
2022/12/19 04:12:35;;;;;;;29.73;26.42;;;14.10;44.40;;;;;;5036732;28;20663;-64
2022/12/19 04:15:03;;;;;;;29.65;26.20;;;14.00;44.50;;;;;;5036977;28;20196;-64
2022/12/19 04:17:32;;;;;;;28.67;25.33;;;14.00;44.60;;;;;;5036646;28;20705;-64
2022/12/19 04:20:01;;;;;;;27.60;24.27;;;14.00;44.80;;;;;;5036659;28;20188;-64
2022/12/19 04:22:30;;;;;;;28.45;25.50;;;14.00;44.50;;;;;;5035227;28;20199;-65
2022/12/19 04:24:59;;;;;;;28.33;25.23;;;14.00;44.70;;;;;;5035693;28;20629;-65
2022/12/19 04:27:27;;;;;;;28.58;25.45;;;14.00;44.50;;;;;;5036129;28;20224;-65
2022/12/19 04:29:55;;;;;;;28.23;25.23;;;14.10;44.60;;;;;;5036442;28;20531;-65
2022/12/19 04:32:22;;;;;;;27.10;24.30;;;14.10;44.60;;;;;;5036937;28;20192;-65
2022/12/19 04:34:49;;;;;;;28.15;25.20;;;14.10;44.70;;;;;;5034841;28;20196;-64
2022/12/19 04:37:16;;;;;;;27.95;24.95;;;14.20;44.80;;;;;;5035284;28;20220;-64
2022/12/19 04:39:44;;;;;;;26.95;23.27;;;14.20;44.80;;;;;;5036283;28;20200;-64
2022/12/19 04:42:12;;;;;;;26.50;23.60;;;14.20;44.30;;;;;;5035076;28;20568;-64
2022/12/19 04:44:39;;;;;;;26.65;23.80;;;14.20;44.50;;;;;;5035409;28;20200;-64
2022/12/19 04:47:06;;;;;;;26.17;23.40;;;14.20;44.20;;;;;;5035070;28;20545;-65
2022/12/19 04:49:33;;;;;;;26.40;23.67;;;14.30;43.80;;;;;;5034728;28;20206;-64
2022/12/19 04:52:00;;;;;;;25.30;22.60;;;14.30;43.80;;;;;;5034526;28;20200;-65
2022/12/19 04:54:27;;;;;;;26.33;23.63;;;14.30;43.90;;;;;;5034434;28;20208;-65
2022/12/19 04:56:54;;;;;;;25.77;23.08;;;14.30;43.80;;;;;;5034444;28;20222;-65
2022/12/19 04:59:22;;;;;;;24.27;21.70;;;14.40;44.00;;;;;;5034332;28;20292;-65
2022/12/19 05:01:49;;;;;;;25.63;22.83;;;14.40;43.80;;;;;;5035282;28;20262;-65
2022/12/19 05:04:16;;;;;;;25.85;23.08;;;14.30;43.80;;;;;;5018025;28;20206;-65
2022/12/19 05:06:43;;;;;;;26.48;23.63;;;14.40;43.60;;;;;;5034158;28;20200;-65
2022/12/19 05:09:11;;;;;;;25.38;22.30;;;14.40;43.70;;;;;;5017861;28;20751;-66
2022/12/19 05:11:38;;;;;;;24.55;21.48;;;14.40;43.60;;;;;;5033925;28;20196;-66
2022/12/19 05:14:05;;;;;;;24.58;21.90;;;14.40;43.50;;;;;;5035492;28;20548;-66
2022/12/19 05:16:34;;;;;;;23.80;21.35;;;14.40;43.60;;;;;;5033795;28;20200;-66
2022/12/19 05:19:01;;;;;;;25.35;22.75;;;14.50;43.80;;;;;;5033894;28;20432;-65
2022/12/19 05:21:28;;;;;;;24.73;22.23;;;14.50;43.40;;;;;;5034315;28;20832;-65
2022/12/19 05:23:55;;;;;;;24.73;22.05;;;14.50;43.50;;;;;;5033857;28;20196;-65
2022/12/19 05:26:22;;;;;;;23.15;20.38;;;14.50;43.60;;;;;;5033765;28;20287;-65
2022/12/19 05:28:49;;;;;;;24.58;21.98;;;14.50;43.60;;;;;;5034770;28;20215;-65
2022/12/19 05:31:18;;;;;;;22.42;20.02;;;14.50;43.60;;;;;;5033818;28;20206;-65
2022/12/19 05:33:47;;;;;;;25.45;21.17;;;14.60;44.00;;;;;;5033882;28;20231;-65
2022/12/19 05:36:15;;;;;;;25.02;20.63;;;14.60;43.70;;;;;;5034967;28;20188;-66
2022/12/19 05:38:42;;;;;;;22.38;19.60;;;14.60;43.30;;;;;;5033791;28;20224;-65
2022/12/19 05:41:11;;;;;;;23.13;19.50;;;14.60;43.10;;;;;;5017192;28;20659;-65
2022/12/19 05:43:38;;;;;;;22.42;19.35;;;14.60;43.20;;;;;;5033782;28;20203;-65
2022/12/19 05:46:05;;;;;;;22.30;19.17;;;14.60;43.30;;;;;;5032800;28;20200;-65
2022/12/19 05:48:32;;;;;;;20.70;18.15;;;14.60;43.40;;;;;;5033290;28;20274;-65
2022/12/19 05:51:00;;;;;;;21.13;17.92;;;14.60;43.50;;;;;;5033217;28;20569;-66
2022/12/19 05:53:27;;;;;;;20.52;18.08;;;14.60;43.00;;;;;;5033340;28;20230;-65
2022/12/19 05:56:03;;;;;;;22.13;19.08;;;14.60;43.40;;;;;;5016731;28;20765;-65
2022/12/19 05:58:30;;;;;;;20.52;17.25;;;14.70;43.30;;;;;;5032941;28;20230;-65
2022/12/19 06:01:02;;;;;;;20.50;17.98;;;14.70;44.10;;;;;;5032986;28;20195;-66
2022/12/19 06:03:29;;;;;;;20.30;17.55;;;14.70;43.00;;;;;;5033523;28;20196;-66
2022/12/19 06:05:56;;;;;;;20.65;17.27;;;14.70;42.80;;;;;;5033321;28;20202;-66
2022/12/19 06:08:25;;;;;;;22.90;17.35;;;14.70;42.80;;;;;;5032931;28;20223;-66
2022/12/19 06:10:51;;;;;;;25.10;16.50;;;14.70;43.10;;;;;;5033079;28;20667;-66
2022/12/19 06:13:19;;;;;;;23.63;17.58;;;14.70;43.80;;;;;;5034243;28;20246;-66
2022/12/19 06:15:46;;;;;;;24.33;18.25;;;14.80;41.80;;;;;;5034127;28;20194;-66
2022/12/19 06:18:13;;;;;;;23.77;17.63;;;14.80;41.30;;;;;;5034123;28;20269;-66
2022/12/19 06:20:40;;;;;;;21.52;16.45;;;14.80;41.40;;;;;;5033533;28;20200;-66
2022/12/19 06:23:07;;;;;;;21.80;16.90;;;14.80;41.50;;;;;;5034554;28;20547;-66
2022/12/19 06:25:35;;;;;;;20.83;16.45;;;14.80;41.70;;;;;;5032612;28;20207;-66
2022/12/19 06:28:02;;;;;;;20.95;16.35;;;14.80;41.60;;;;;;5032856;28;20216;-66
2022/12/19 06:30:29;;;;;;;19.15;15.80;;;14.80;41.60;;;;;;5032523;28;20200;-66
2022/12/19 06:32:56;;;;;;;22.75;16.60;;;14.80;41.60;;;;;;5032658;28;20270;-66
2022/12/19 06:35:23;;;;;;;18.67;15.95;;;14.80;41.60;;;;;;5032531;28;20223;-66
2022/12/19 06:37:50;;;;;;;23.00;16.50;;;14.80;41.60;;;;;;5032912;28;20227;-64
2022/12/19 06:42:21;;;;;;;17.77;15.00;;;14.80;41.60;;;;;;5017153;28;20322;-65
2022/12/19 06:43:04;;;;;;;20.33;16.10;;;14.80;41.60;;;;;;5032378;28;20208;-64
2022/12/19 06:45:31;;;;;;;17.45;15.32;;;14.80;41.60;;;;;;5034604;28;20190;-64
2022/12/19 06:47:58;;;;;;;18.67;15.45;;;14.80;41.60;;;;;;5033121;28;20740;-64
2022/12/19 06:50:25;;;;;;;20.88;15.50;;;14.80;41.50;;;;;;5032972;28;20228;-63
2022/12/19 06:52:53;;;;;;;18.25;15.02;;;14.80;41.60;;;;;;5033661;28;20196;-63
2022/12/19 06:55:20;;;;;;;18.05;15.00;;;14.80;41.60;;;;;;5033286;28;20195;-63
2022/12/19 06:57:47;;;;;;;18.67;14.98;;;14.80;41.60;;;;;;5035659;28;20281;-64
2022/12/19 07:00:15;;;;;;;20.40;15.55;;;14.90;41.70;;;;;;5038415;28;20199;-64
2022/12/19 07:02:44;;;;;;;18.73;16.08;;;14.90;41.70;;;;;;5038478;28;20740;-64
2022/12/19 07:05:11;;;;;;;20.23;14.63;;;14.90;41.50;;;;;;5021360;28;20230;-64
2022/12/19 07:07:38;;;;;;;19.98;17.00;;;14.90;41.60;;;;;;5038822;28;20207;-64
2022/12/19 07:10:06;;;;;;;20.30;15.65;;;14.90;41.60;;;;;;5036896;28;20223;-64
2022/12/19 07:12:34;;;;;;;17.05;14.07;;;14.90;41.50;;;;;;5036761;28;20206;-64
2022/12/19 07:15:01;;;;;;;18.17;13.98;;;14.90;41.60;;;;;;5036298;28;20560;-64
2022/12/19 07:17:29;;;;;;;17.58;14.65;;;14.90;41.70;;;;;;5036299;28;20223;-64
2022/12/19 07:19:58;;;;;;;17.38;14.52;;;14.90;41.30;;;;;;5036157;28;20287;-64
2022/12/19 07:22:26;;;;;;;16.10;13.55;;;14.90;41.40;;;;;;5035987;28;20681;-63
2022/12/19 07:24:54;;;;;;;19.27;13.95;;;14.90;41.70;;;;;;5037717;28;20262;-63
2022/12/19 07:27:22;;;;;;;18.15;13.55;;;14.90;41.60;;;;;;5037544;28;20242;-63
2022/12/19 07:29:49;;;;;;;16.65;14.30;;;14.90;41.60;;;;;;5037500;28;20196;-63
2022/12/19 07:32:16;;;;;;;17.95;14.70;;;15.00;41.70;;;;;;5035944;28;20286;-63
2022/12/19 07:34:45;;;;;;;18.38;14.65;;;15.00;41.80;;;;;;5035972;28;20655;-63
2022/12/19 07:37:12;;;;;;;15.18;13.57;;;15.00;41.70;;;;;;5035974;28;20270;-63
2022/12/19 07:39:39;;;;;;;19.42;15.07;;;15.00;41.70;;;;;;5035598;28;20231;-64
2022/12/19 07:42:06;;;;;;;17.77;14.13;;;15.10;41.90;;;;;;5035923;28;20586;-64
2022/12/19 07:44:38;;;;;;;15.80;13.60;;;15.10;41.90;;;;;;5035836;28;20217;-64
2022/12/19 07:47:06;;;;;;;18.50;14.52;;;15.10;41.80;;;;;;5035767;28;20274;-63
2022/12/19 07:49:32;;;;;;;17.35;13.65;;;15.10;41.70;;;;;;5035660;28;20643;-64
2022/12/19 07:52:01;;;;;;;16.23;13.57;;;15.10;41.90;;;;;;5035485;28;20235;-63
2022/12/19 07:54:28;;;;;;;14.80;13.10;;;15.10;41.90;;;;;;5035433;28;20196;-64
2022/12/19 07:56:55;;;;;;;16.88;13.65;;;15.10;41.90;;;;;;5035661;28;20200;-64
2022/12/19 07:59:22;;;;;;;17.38;13.70;;;15.10;41.90;;;;;;5036211;28;20222;-64
2022/12/19 08:01:50;;;;;;;16.65;14.25;;;15.20;42.00;;;;;;5035299;28;20203;-64
2022/12/19 08:04:16;;;;;;;15.77;13.73;;;15.20;41.90;;;;;;5035436;28;20253;-64
2022/12/19 08:06:44;;;;;;;16.50;13.70;;;15.20;42.00;;;;;;5035097;28;20195;-64
2022/12/19 08:09:13;;;;;;;16.10;12.85;;;15.20;42.00;;;;;;5035800;28;20581;-64
2022/12/19 08:11:41;;;;;;;16.65;13.60;;;15.20;42.00;;;;;;5037534;28;20231;-64
2022/12/19 08:14:08;;;;;;;17.40;13.27;;;15.10;41.90;;;;;;5035956;28;20200;-64
2022/12/19 08:16:36;;;;;;;15.23;12.98;;;15.20;42.00;;;;;;5035135;28;20227;-64
2022/12/19 08:19:03;;;;;;;18.35;14.63;;;15.10;41.90;;;;;;5035444;28;20585;-64
2022/12/19 08:21:30;;;;;;;17.67;14.10;;;15.20;42.00;;;;;;5036607;28;20189;-64
2022/12/19 08:23:57;;;;;;;17.73;13.63;;;15.20;42.00;;;;;;5036321;28;20184;-64
2022/12/19 08:26:26;;;;;;;15.68;12.95;;;15.20;42.20;;;;;;5034876;28;20196;-64
2022/12/19 08:28:53;;;;;;;17.50;13.57;;;15.20;42.00;;;;;;5034807;28;20212;-64
2022/12/19 08:31:20;;;;;;;15.52;12.75;;;15.20;42.10;;;;;;5034795;28;20204;-64
2022/12/19 08:33:48;;;;;;;17.98;13.75;;;15.30;42.00;;;;;;5036091;28;20192;-64
2022/12/19 08:36:15;;;;;;;15.02;13.07;;;15.30;42.00;;;;;;5036140;28;20188;-64
2022/12/19 08:38:42;;;;;;;15.52;12.55;;;15.30;42.10;;;;;;5035389;28;20231;-64
2022/12/19 08:41:10;;;;;;;17.80;13.60;;;15.30;42.20;;;;;;5018415;28;20212;-64
2022/12/19 08:43:38;;;;;;;16.25;12.57;;;15.30;42.00;;;;;;5034492;28;20567;-64
2022/12/19 08:46:05;;;;;;;14.15;12.55;;;15.30;42.10;;;;;;5034514;28;20391;-64
2022/12/19 08:48:32;;;;;;;14.88;12.63;;;15.30;42.20;;;;;;5035722;28;20208;-64
2022/12/19 08:51:01;;;;;;;17.63;12.95;;;15.40;42.10;;;;;;5035829;28;20199;-64
2022/12/19 08:53:29;;;;;;;17.70;13.93;;;15.40;42.10;;;;;;5036200;28;20192;-64
2022/12/19 08:55:56;;;;;;;13.98;11.93;;;15.40;42.10;;;;;;5035887;28;20246;-64
2022/12/19 08:58:24;;;;;;;15.27;12.82;;;15.40;42.10;;;;;;5035642;28;20211;-64
2022/12/19 09:00:52;;;;;;;16.75;13.43;;;15.40;42.70;;;;;;5034209;28;20200;-64
2022/12/19 09:03:19;;;;;;;17.13;12.75;;;15.50;42.20;;;;;;5034644;28;20232;-64
2022/12/19 09:05:46;;;;;;;14.88;12.25;;;15.50;42.80;;;;;;5034210;28;20206;-64
2022/12/19 09:08:13;;;;;;;17.30;13.05;;;15.50;42.20;;;;;;5034592;28;20740;-63
2022/12/19 09:10:40;;;;;;;17.80;14.40;;;15.50;42.20;;;;;;5035708;28;20613;-63
2022/12/19 09:13:07;;;;;;;14.82;12.38;;;15.50;42.10;;;;;;5035910;28;20192;-63
2022/12/19 09:15:34;;;;;;;15.50;12.98;;;15.60;42.30;;;;;;5034751;28;20207;-63
2022/12/19 09:18:02;;;;;;;14.55;11.75;;;15.60;42.00;;;;;;5034752;28;20224;-63
2022/12/19 09:20:29;;;;;;;16.13;13.23;;;15.60;42.10;;;;;;5033887;28;20204;-63
2022/12/19 09:22:56;;;;;;;17.08;13.88;;;15.60;42.00;;;;;;5034411;28;20204;-63
2022/12/19 09:25:23;;;;;;;18.73;13.18;;;15.60;42.00;;;;;;5037686;28;20200;-64
2022/12/19 09:27:50;;;;;;;14.50;12.30;;;15.60;41.80;;;;;;5046400;28;20223;-64
2022/12/19 09:30:18;;;;;;;14.90;12.55;;;15.60;41.90;;;;;;5039372;28;20200;-64
2022/12/19 09:32:46;;;;;;;14.43;11.65;;;15.70;42.00;;;;;;5035688;28;20184;-64
2022/12/19 09:35:14;;;;;;;16.05;13.27;;;15.70;42.10;;;;;;5034371;28;20224;-64
2022/12/19 09:37:42;;;;;;;14.38;11.98;;;15.70;41.80;;;;;;5034049;28;20238;-64
2022/12/19 09:40:12;;;;;;;14.95;12.60;;;15.70;41.90;;;;;;5033924;28;20220;-64
2022/12/19 09:42:46;;;;;;;17.52;13.18;;;15.70;41.80;;;;;;5034560;28;20204;-64
2022/12/19 09:45:31;;;;;;;14.43;12.10;;;15.70;42.00;;;;;;5035327;28;20194;-64
2022/12/19 09:47:58;;;;;;;15.00;12.55;;;15.80;42.00;;;;;;5034424;28;20230;-64
2022/12/19 09:50:31;;;;;;;16.48;13.48;;;15.80;42.00;;;;;;5034872;28;20246;-64
2022/12/19 09:52:59;;;;;;;15.88;12.80;;;15.80;42.00;;;;;;5033425;28;20205;-64
2022/12/19 09:55:28;;;;;;;12.43;11.10;;;15.80;41.90;;;;;;5033331;28;20215;-64
2022/12/19 09:57:57;;;;;;;13.70;12.18;;;15.90;42.10;;;;;;5033311;28;20216;-64
2022/12/19 10:00:24;;;;;;;14.02;11.77;;;15.90;42.00;;;;;;5033276;28;20223;-64
2022/12/19 10:02:55;;;;;;;13.52;11.85;;;15.90;41.90;;;;;;5033066;28;20196;-64
2022/12/19 10:05:24;;;;;;;14.77;12.57;;;15.90;41.90;;;;;;5033263;28;20246;-64
2022/12/19 10:07:52;;;;;;;13.73;11.90;;;15.90;41.80;;;;;;5032827;28;20222;-64
2022/12/19 10:10:23;;;;;;;14.40;12.77;;;15.90;41.70;;;;;;5033273;28;20536;-64
2022/12/19 10:13:01;;;;;;;13.60;11.88;;;16.00;41.80;;;;;;5033003;28;20711;-64
2022/12/19 10:15:34;;;;;;;16.45;12.75;;;16.00;41.80;;;;;;5033102;28;20188;-64
2022/12/19 10:18:17;;;;;;;13.52;11.80;;;16.00;41.90;;;;;;5032829;28;20224;-64
2022/12/19 10:20:46;;;;;;;13.52;11.45;;;16.00;41.80;;;;;;5033693;28;20184;-64
2022/12/19 10:23:45;;;;;;;12.45;11.15;;;16.10;41.90;;;;;;5033678;28;20195;-64
2022/12/19 10:26:14;;;;;;;14.02;12.00;;;16.20;41.80;;;;;;5032937;28;20529;-64
2022/12/19 10:28:49;;;;;;;15.30;12.23;;;16.20;41.60;;;;;;5032511;28;20223;-64
2022/12/19 10:31:17;;;;;;;14.35;12.05;;;16.20;41.50;;;;;;5016033;28;20202;-64
2022/12/19 10:33:46;;;;;;;13.98;11.85;;;16.20;41.50;;;;;;5032511;28;20279;-64
2022/12/19 10:36:14;;;;;;;13.75;11.48;;;16.30;41.50;;;;;;5032450;28;20686;-64
2022/12/19 10:38:48;;;;;;;14.75;12.48;;;16.30;41.40;;;;;;5032359;28;20599;-65
2022/12/19 10:41:17;;;;;;;14.70;12.27;;;16.30;41.40;;;;;;5033722;28;20204;-65
2022/12/19 10:43:52;;;;;;;13.73;11.13;;;16.40;41.40;;;;;;5032386;28;20203;-64
2022/12/19 10:46:23;;;;;;;12.85;11.45;;;16.40;41.50;;;;;;5032480;28;20207;-64
2022/12/19 10:48:51;;;;;;;13.60;11.00;;;16.40;41.30;;;;;;5033641;28;20212;-64
2022/12/19 10:51:22;;;;;;;14.38;11.45;;;16.40;41.30;;;;;;5032309;28;20197;-64
2022/12/19 10:53:55;;;;;;;14.10;12.07;;;16.50;41.50;;;;;;5033747;28;20215;-64
2022/12/19 10:56:24;;;;;;;13.90;11.50;;;16.50;41.30;;;;;;5032273;28;20254;-64
2022/12/19 10:58:54;;;;;;;13.13;11.57;;;16.50;41.40;;;;;;5032042;28;20580;-64
2022/12/19 11:01:22;;;;;;;13.13;11.73;;;16.50;41.50;;;;;;5032254;28;20204;-64
2022/12/19 11:03:52;;;;;;;16.60;12.95;;;16.50;41.30;;;;;;5015866;28;20230;-64
2022/12/19 11:06:41;;;;;;;13.98;12.48;;;16.50;41.20;;;;;;5033406;28;20643;-65
2022/12/19 11:09:21;;;;;;;13.98;12.02;;;16.50;41.30;;;;;;5033337;28;20212;-64
2022/12/19 11:11:49;;;;;;;13.52;12.10;;;16.50;41.20;;;;;;5033288;28;20183;-64
2022/12/19 11:14:21;;;;;;;13.57;11.95;;;16.50;41.20;;;;;;5031974;28;20428;-64
2022/12/19 11:16:48;;;;;;;13.88;12.27;;;16.50;41.30;;;;;;5032009;28;20207;-64
2022/12/19 11:19:26;;;;;;;12.60;11.25;;;16.50;41.40;;;;;;5033326;28;20230;-64
2022/12/19 11:21:57;;;;;;;14.05;11.60;;;16.60;41.50;;;;;;5032175;28;20206;-64
2022/12/19 11:24:27;;;;;;;15.15;12.68;;;16.60;41.30;;;;;;5031909;28;20191;-64
2022/12/19 11:26:54;;;;;;;14.27;12.13;;;16.60;41.30;;;;;;5031899;28;20192;-64
2022/12/19 11:29:23;;;;;;;14.77;11.25;;;16.60;41.20;;;;;;5031879;28;20216;-64
2022/12/19 11:31:55;;;;;;;13.77;11.82;;;16.60;41.30;;;;;;5031898;28;20206;-64
2022/12/19 11:34:23;;;;;;;12.18;10.80;;;16.60;41.20;;;;;;5032055;28;20188;-64
2022/12/19 11:36:52;;;;;;;14.60;12.38;;;16.70;41.20;;;;;;5032614;28;20196;-64
2022/12/19 11:39:23;;;;;;;15.38;13.07;;;16.70;41.30;;;;;;5031563;28;20220;-64
2022/12/19 11:41:54;;;;;;;13.35;11.95;;;16.80;41.30;;;;;;5033274;28;20250;-64
2022/12/19 11:44:26;;;;;;;13.77;12.32;;;16.80;41.30;;;;;;5034594;28;20180;-64
2022/12/19 11:46:55;;;;;;;13.32;11.85;;;16.80;41.40;;;;;;5035663;28;20745;-64
2022/12/19 11:49:25;;;;;;;13.65;11.82;;;16.80;41.50;;;;;;5036688;28;20326;-64
2022/12/19 11:51:54;;;;;;;13.30;11.88;;;16.90;41.50;;;;;;5035431;28;20196;-64
2022/12/19 11:54:24;;;;;;;13.90;12.40;;;16.80;41.00;;;;;;5035491;28;20283;-64
2022/12/19 11:56:53;;;;;;;13.05;11.65;;;16.90;41.10;;;;;;5036000;28;20188;-64
2022/12/19 11:59:21;;;;;;;12.02;10.77;;;16.80;41.10;;;;;;5036637;28;20219;-64
2022/12/19 12:02:02;;;;;;;14.43;11.93;;;16.90;41.10;;;;;;5019179;28;20291;-64
2022/12/19 12:04:50;;;;;;;12.40;11.13;;;16.80;41.20;;;;;;5037110;28;20215;-64
2022/12/19 12:07:17;;;;;;;11.52;10.32;;;16.90;41.20;;;;;;5035218;28;20204;-65
2022/12/19 12:09:45;;;;;;;11.27;10.10;;;16.80;41.30;;;;;;5035399;28;20200;-64
2022/12/19 12:12:19;;;;;;;11.75;10.50;;;16.80;41.40;;;;;;5035204;28;20192;-64
2022/12/19 12:14:52;;;;;;;12.05;10.85;;;16.90;41.40;;;;;;5036213;28;20192;-64
2022/12/19 12:17:31;;;;;;;13.80;11.45;;;16.90;41.40;;;;;;5035324;28;20238;-64
2022/12/19 12:20:09;;;;;;;10.82;9.73;;;16.80;41.30;;;;;;5035161;28;20223;-64
2022/12/19 12:22:45;;;;;;;11.80;10.60;;;16.80;41.40;;;;;;5035944;28;20192;-64
2022/12/19 12:25:21;;;;;;;12.30;10.98;;;16.80;41.40;;;;;;5036693;28;20191;-64
2022/12/19 12:27:53;;;;;;;13.55;11.55;;;16.90;41.50;;;;;;5036173;28;20226;-64
2022/12/19 12:30:21;;;;;;;12.95;11.55;;;16.90;41.60;;;;;;5036482;28;20538;-65
2022/12/19 12:32:59;;;;;;;12.70;11.27;;;16.80;41.40;;;;;;5036346;28;20721;-64
2022/12/19 12:35:31;;;;;;;12.38;10.68;;;16.90;41.50;;;;;;5035093;28;20188;-64
2022/12/19 12:38:04;;;;;;;13.00;11.63;;;16.90;41.50;;;;;;5034614;28;20219;-64
2022/12/19 12:40:43;;;;;;;11.32;10.20;;;16.90;41.50;;;;;;5036146;28;20211;-64
2022/12/19 12:43:17;;;;;;;10.93;9.82;;;16.90;41.70;;;;;;5034428;28;20243;-64